Flight Track Log - Related Links

Times and Time Zones

All times are in EDT time to prevent confusion due to time zone crossing. See the N498QS flight status page for this flight to view local times or setup timezone preferences in your user account.

Time Position Orientation Groundspeed Altitude Reporting Facility
EDT Latitude Longitude Course Direction KTS MPH feet Rate Location/Type
Thu 07:24:13 AM 38.9833 -77.5167 113° Southeast 199 229 4,300  Level Potomac TRACON
Thu 07:25:13 AM 39.0333 -77.5500 333° Northwest 265 305 8,300 2,350 Climbing Potomac TRACON
Thu 07:26:13 AM 39.1000 -77.4833 38° Northeast 299 344 9,000 350 Climbing Potomac TRACON
Thu 07:27:13 AM 39.1667 -77.4000 44° Northeast 296 341 9,000  Level Potomac TRACON
Thu 07:29:00 AM 39.3087 -76.9260 113° Southeast  Level FlightAware Approximate
Thu 07:29:02 AM 39.2311 -77.2556 60° Northeast 303 349 9,000  Level Washington Center
Thu 07:30:02 AM 39.2761 -77.1628 58° Northeast 303 349 11,300 2,300 Climbing Washington Center
Thu 07:31:02 AM 39.3217 -77.0322 66° East 338 389 13,600 2,000 Climbing Washington Center
Thu 07:32:02 AM 39.3025 -76.8817 99° East 369 425 15,300 2,650 Climbing Washington Center
Thu 07:33:02 AM 39.2686 -76.7417 107° East 390 449 18,900 1,850 Climbing Washington Center
Thu 07:34:02 AM 39.2383 -76.6153 107° East 380 437 19,000 50 Climbing Washington Center
Thu 07:35:02 AM 39.2081 -76.4889 107° East 375 432 19,000  Level Washington Center
Thu 07:36:02 AM 39.1819 -76.3628 105° East 370 426 19,000  Level Washington Center
Thu 07:37:02 AM 39.1911 -76.2236 85° East 370 426 19,000 -500 Level Washington Center
Thu 07:38:02 AM 39.2728 -76.0928 51° Northeast 362 417 18,000 -1,000 Descending Washington Center
Thu 07:39:02 AM 39.3628 -76.0103 35° Northeast 372 428 17,000 -1,063 Descending Washington Center
Thu 07:39:21 AM 39.3861 -75.9794 46° Northeast 397 457 16,600 -1,231 Descending FAA TRACON SMA TRACON (SMA)
Thu 07:39:41 AM 39.4142 -75.9550 34° Northeast 395 455 16,200 -1,317 Descending FAA TRACON SMA TRACON (SMA)
Thu 07:40:02 AM 39.4419 -75.9289 36° Northeast 394 453 15,700 -1,756 Descending FAA TRACON SMA TRACON (SMA)
Thu 07:40:22 AM 39.4733 -75.8972 38° Northeast 387 445 15,000 -1,950 Descending FAA TRACON SMA TRACON (SMA)
Thu 07:40:42 AM 39.5014 -75.8728 34° Northeast 383 441 14,400 -1,800 Descending FAA TRACON SMA TRACON (SMA)
Thu 07:41:02 AM 39.5256 -75.8483 38° Northeast 379 436 13,800 -1,800 Descending FAA TRACON SMA TRACON (SMA)
Thu 07:41:22 AM 39.5583 -75.8181 35° Northeast 371 427 13,200 -1,050 Descending FAA TRACON SMA TRACON (SMA)
Thu 07:41:42 AM 39.5839 -75.7944 35° Northeast 362 417 13,100 -300 Descending FAA TRACON SMA TRACON (SMA)
Thu 07:42:02 AM 39.6083 -75.7717 36° Northeast 358 412 13,000 -150 Descending FAA TRACON SMA TRACON (SMA)
Thu 07:42:22 AM 39.6394 -75.7433 35° Northeast 357 411 13,000  Level FAA TRACON SMA TRACON (SMA)
Thu 07:42:42 AM 39.6639 -75.7211 35° Northeast 357 411 13,000  Level FAA TRACON SMA TRACON (SMA)
Thu 07:43:02 AM 39.6886 -75.6978 36° Northeast 358 412 13,000  Level FAA TRACON SMA TRACON (SMA)
Thu 07:43:22 AM 39.7211 -75.6681 35° Northeast 358 412 13,000  Level FAA TRACON SMA TRACON (SMA)
Thu 07:43:42 AM 39.7464 -75.6450 35° Northeast 360 414 13,000  Level FAA TRACON SMA TRACON (SMA)
Thu 07:44:02 AM 39.7714 -75.6217 36° Northeast 360 414 13,000  Level FAA TRACON SMA TRACON (SMA)
Thu 07:44:22 AM 39.8033 -75.5925 35° Northeast 362 417 13,000  Level FAA TRACON SMA TRACON (SMA)
Thu 07:44:42 AM 39.8278 -75.5706 35° Northeast 361 415 13,000  Level FAA TRACON SMA TRACON (SMA)
Thu 07:45:02 AM 39.8531 -75.5469 36° Northeast 362 417 13,000  Level FAA TRACON SMA TRACON (SMA)
Thu 07:45:22 AM 39.8775 -75.5247 35° Northeast 366 421 13,000  Level FAA TRACON SMA TRACON (SMA)
Thu 07:45:42 AM 39.9125 -75.4919 36° Northeast 366 421 13,000  Level FAA TRACON SMA TRACON (SMA)
Thu 07:46:02 AM 39.9381 -75.4681 36° Northeast 365 420 13,000  Level FAA TRACON SMA TRACON (SMA)
Thu 07:46:22 AM 39.9614 -75.4461 36° Northeast 363 418 13,000  Level FAA TRACON SMA TRACON (SMA)
Thu 07:46:42 AM 39.9953 -75.4153 35° Northeast 361 415 13,000  Level FAA TRACON SMA TRACON (SMA)
Thu 07:47:02 AM 40.0197 -75.3919 36° Northeast 360 414 13,000  Level FAA TRACON SMA TRACON (SMA)
Thu 07:47:22 AM 40.0447 -75.3697 34° Northeast 360 414 13,000  Level FAA TRACON SMA TRACON (SMA)
Thu 07:47:42 AM 40.0767 -75.3389 36° Northeast 357 411 13,000  Level FAA TRACON SMA TRACON (SMA)
Thu 07:48:02 AM 40.1019 -75.3153 36° Northeast 358 412 13,000  Level FAA TRACON SMA TRACON (SMA)
Thu 07:48:22 AM 40.1269 -75.2922 35° Northeast 357 411 13,000  Level FAA TRACON SMA TRACON (SMA)
Thu 07:48:42 AM 40.1558 -75.2647 36° Northeast 356 410 13,000 -450 Level FAA TRACON SMA TRACON (SMA)
Thu 07:49:02 AM 40.1819 -75.2403 36° Northeast 358 412 12,700 -1,350 Descending FAA TRACON SMA TRACON (SMA)
Thu 07:49:22 AM 40.2083 -75.2164 35° Northeast 361 415 12,100 -2,100 Descending FAA TRACON SMA TRACON (SMA)
Thu 07:49:42 AM 40.2394 -75.1881 35° Northeast 357 411 11,300 -1,650 Descending FAA TRACON SMA TRACON (SMA)
Thu 07:50:02 AM 40.2619 -75.1669 36° Northeast 345 397 11,000 -1,350 Descending FAA TRACON SMA TRACON (SMA)
Thu 07:50:22 AM 40.2850 -75.1447 36° Northeast 323 372 10,400 -1,950 Descending FAA TRACON SMA TRACON (SMA)
Thu 07:50:42 AM 40.3125 -75.1186 36° Northeast 316 364 9,700 -1,800 Descending FAA TRACON SMA TRACON (SMA)
Thu 07:51:02 AM 40.3328 -75.0956 41° Northeast 306 352 9,200 -1,650 Descending FAA TRACON SMA TRACON (SMA)
Thu 07:51:22 AM 40.3506 -75.0703 47° Northeast 304 350 8,600 -1,800 Descending FAA TRACON SMA TRACON (SMA)
Thu 07:51:42 AM 40.3728 -75.0392 47° Northeast 303 349 8,000 -1,650 Descending FAA TRACON SMA TRACON (SMA)
Thu 07:52:02 AM 40.3897 -75.0153 47° Northeast 303 349 7,500 -1,350 Descending FAA TRACON SMA TRACON (SMA)
Thu 07:52:22 AM 40.4078 -74.9892 48° Northeast 301 346 7,100 -1,350 Descending FAA TRACON SMA TRACON (SMA)
Thu 07:52:42 AM 40.4289 -74.9592 47° Northeast 296 341 6,600 -1,350 Descending FAA TRACON SMA TRACON (SMA)
Thu 07:53:02 AM 40.4458 -74.9358 46° Northeast 288 331 6,200 -1,200 Descending FAA TRACON SMA TRACON (SMA)
Thu 07:53:22 AM 40.4619 -74.9136 46° Northeast 273 314 5,800 -1,350 Descending FAA TRACON SMA TRACON (SMA)
Thu 07:53:42 AM 40.4764 -74.8914 49° Northeast 262 302 5,300 -1,350 Descending FAA TRACON SMA TRACON (SMA)
Thu 07:54:02 AM 40.4922 -74.8619 55° Northeast 255 293 4,900 -1,050 Descending FAA TRACON SMA TRACON (SMA)
Thu 07:54:22 AM 40.5039 -74.8381 57° Northeast 255 293 4,600 -900 Descending FAA TRACON SMA TRACON (SMA)
Thu 07:54:42 AM 40.5161 -74.8139 56° Northeast 255 293 4,300 -585 Descending FAA TRACON SMA TRACON (SMA)
Thu 07:55:03 AM 40.5189 -74.8081 58° Northeast 256 295 4,200 -1,200 Descending FAA TRACON SMA TRACON (SMA)
Thu 07:55:27 AM 40.5500 -74.7667 45° Northeast 257 296 3,400 -857 Descending New York TRACON
Thu 07:56:27 AM 40.6000 -74.6833 52° Northeast 255 293 3,000 -200 Descending New York TRACON
Thu 07:57:27 AM 40.6500 -74.6167 45° Northeast 254 292 3,000 -300 Level New York TRACON
Thu 07:58:27 AM 40.6833 -74.5500 57° Northeast 236 272 2,400 -550 Descending New York TRACON
Thu 07:59:27 AM 40.7167 -74.5000 49° Northeast 183 211 1,900 -526 Descending New York TRACON
Thu 08:00:21 AM 40.7500 -74.4667 37° Northeast 164 189 1,400 -632 Descending New York TRACON
Thu 08:01:21 AM 40.7833 -74.4333 37° Northeast 139 160 700 -700 Descending New York TRACON
Thu 08:03:00 AM 40.7833 -74.4000 62° Northeast  Level FlightAware Approximate
Thu 08:10:00 AM 40.7993 -74.4149 62° Northeast  Level Estimated

Login

Don't have an account? Register now (free) for customized features, flight alerts, and more!